sensor_id;sensor_type;location;lat;lon;timestamp;pressure;altitude;pressure_sealevel;temperature;humidity
53506;BME280;39388;50.936;6.848;2022-08-21T00:02:27;101125.16;;;19.24;65.75
53506;BME280;39388;50.936;6.848;2022-08-21T00:04:57;101128.72;;;19.22;66.04
53506;BME280;39388;50.936;6.848;2022-08-21T00:07:28;101127.03;;;19.21;66.06
53506;BME280;39388;50.936;6.848;2022-08-21T00:09:58;101127.16;;;19.16;66.16
53506;BME280;39388;50.936;6.848;2022-08-21T00:12:31;101122.91;;;19.14;66.61
53506;BME280;39388;50.936;6.848;2022-08-21T00:15:04;101116.06;;;19.09;66.59
53506;BME280;39388;50.936;6.848;2022-08-21T00:17:39;101122.16;;;19.10;66.87
53506;BME280;39388;50.936;6.848;2022-08-21T00:20:12;101118.75;;;19.08;67.09
53506;BME280;39388;50.936;6.848;2022-08-21T00:22:45;101112.78;;;19.04;67.03
53506;BME280;39388;50.936;6.848;2022-08-21T00:25:17;101116.34;;;19.02;67.04
53506;BME280;39388;50.936;6.848;2022-08-21T00:27:48;101102.63;;;18.95;67.32
53506;BME280;39388;50.936;6.848;2022-08-21T00:30:21;101109.66;;;18.93;67.28
53506;BME280;39388;50.936;6.848;2022-08-21T00:32:54;101104.56;;;18.90;67.49
53506;BME280;39388;50.936;6.848;2022-08-21T00:35:28;101106.38;;;18.86;67.51
53506;BME280;39388;50.936;6.848;2022-08-21T00:38:00;101101.28;;;18.83;67.51
53506;BME280;39388;50.936;6.848;2022-08-21T00:40:47;101104.00;;;18.80;67.83
53506;BME280;39388;50.936;6.848;2022-08-21T00:43:23;101097.13;;;18.77;67.68
53506;BME280;39388;50.936;6.848;2022-08-21T00:45:54;101093.75;;;18.74;67.78
53506;BME280;39388;50.936;6.848;2022-08-21T00:48:26;101099.09;;;18.71;67.87
53506;BME280;39388;50.936;6.848;2022-08-21T00:51:42;101094.94;;;18.63;67.99
53506;BME280;39388;50.936;6.848;2022-08-21T00:54:05;101104.56;;;18.63;68.01
53506;BME280;39388;50.936;6.848;2022-08-21T00:56:36;101109.81;;;18.61;68.01
53506;BME280;39388;50.936;6.848;2022-08-21T00:59:07;101096.16;;;18.53;68.21
53506;BME280;39388;50.936;6.848;2022-08-21T01:01:37;101104.00;;;18.53;68.38
53506;BME280;39388;50.936;6.848;2022-08-21T01:04:08;101106.75;;;18.48;68.44
53506;BME280;39388;50.936;6.848;2022-08-21T01:06:38;101104.25;;;18.45;68.50
53506;BME280;39388;50.936;6.848;2022-08-21T01:09:10;101096.59;;;18.39;68.59
53506;BME280;39388;50.936;6.848;2022-08-21T01:11:41;101101.06;;;18.35;68.59
53506;BME280;39388;50.936;6.848;2022-08-21T01:14:14;101098.50;;;18.32;68.54
53506;BME280;39388;50.936;6.848;2022-08-21T01:16:46;101108.25;;;18.27;68.61
53506;BME280;39388;50.936;6.848;2022-08-21T01:19:19;101113.50;;;18.26;68.67
53506;BME280;39388;50.936;6.848;2022-08-21T01:21:50;101112.84;;;18.19;68.84
53506;BME280;39388;50.936;6.848;2022-08-21T01:24:21;101113.94;;;18.12;68.89
53506;BME280;39388;50.936;6.848;2022-08-21T01:26:52;101114.84;;;18.11;69.25
53506;BME280;39388;50.936;6.848;2022-08-21T01:32:11;101116.72;;;18.05;69.26
53506;BME280;39388;50.936;6.848;2022-08-21T01:34:45;101119.41;;;18.02;69.58
53506;BME280;39388;50.936;6.848;2022-08-21T01:37:16;101122.91;;;18.01;69.21
53506;BME280;39388;50.936;6.848;2022-08-21T01:39:47;101112.69;;;17.95;69.19
53506;BME280;39388;50.936;6.848;2022-08-21T01:42:18;101106.81;;;17.87;69.60
53506;BME280;39388;50.936;6.848;2022-08-21T01:44:48;101115.59;;;17.84;69.46
53506;BME280;39388;50.936;6.848;2022-08-21T01:47:19;101104.34;;;17.82;69.45
53506;BME280;39388;50.936;6.848;2022-08-21T01:49:49;101110.50;;;17.80;69.29
53506;BME280;39388;50.936;6.848;2022-08-21T01:52:20;101107.09;;;17.78;69.40
53506;BME280;39388;50.936;6.848;2022-08-21T01:54:50;101094.22;;;17.71;69.20
53506;BME280;39388;50.936;6.848;2022-08-21T01:57:21;101098.66;;;17.68;69.21
53506;BME280;39388;50.936;6.848;2022-08-21T01:59:52;101097.91;;;17.64;69.19
53506;BME280;39388;50.936;6.848;2022-08-21T02:02:22;101099.56;;;17.67;69.16
53506;BME280;39388;50.936;6.848;2022-08-21T02:04:53;101094.47;;;17.62;69.18
53506;BME280;39388;50.936;6.848;2022-08-21T02:07:23;101104.03;;;17.63;69.05
53506;BME280;39388;50.936;6.848;2022-08-21T02:09:54;101098.13;;;17.56;69.17
53506;BME280;39388;50.936;6.848;2022-08-21T02:12:24;101102.50;;;17.56;69.45
53506;BME280;39388;50.936;6.848;2022-08-21T02:14:54;101092.97;;;17.55;69.25
53506;BME280;39388;50.936;6.848;2022-08-21T02:17:25;101100.81;;;17.53;69.20
53506;BME280;39388;50.936;6.848;2022-08-21T02:19:55;101084.56;;;17.43;69.36
53506;BME280;39388;50.936;6.848;2022-08-21T02:22:25;101081.13;;;17.43;69.27
53506;BME280;39388;50.936;6.848;2022-08-21T02:24:56;101080.28;;;17.41;69.39
53506;BME280;39388;50.936;6.848;2022-08-21T02:27:26;101082.13;;;17.37;69.32
53506;BME280;39388;50.936;6.848;2022-08-21T02:29:57;101095.13;;;17.39;69.26
53506;BME280;39388;50.936;6.848;2022-08-21T02:32:28;101094.28;;;17.38;69.35
53506;BME280;39388;50.936;6.848;2022-08-21T02:34:58;101096.06;;;17.36;69.35
53506;BME280;39388;50.936;6.848;2022-08-21T02:37:28;101086.63;;;17.32;69.53
53506;BME280;39388;50.936;6.848;2022-08-21T02:40:00;101083.31;;;17.25;69.50
53506;BME280;39388;50.936;6.848;2022-08-21T02:42:31;101086.69;;;17.29;69.66
53506;BME280;39388;50.936;6.848;2022-08-21T02:45:01;101078.97;;;17.26;69.73
53506;BME280;39388;50.936;6.848;2022-08-21T02:47:31;101089.34;;;17.27;69.66
53506;BME280;39388;50.936;6.848;2022-08-21T02:50:03;101072.19;;;17.19;69.76
53506;BME280;39388;50.936;6.848;2022-08-21T02:52:33;101084.38;;;17.17;69.79
53506;BME280;39388;50.936;6.848;2022-08-21T02:55:04;101086.06;;;17.19;69.66
53506;BME280;39388;50.936;6.848;2022-08-21T02:57:35;101081.78;;;17.17;69.92
53506;BME280;39388;50.936;6.848;2022-08-21T03:00:07;101078.47;;;17.10;69.85
53506;BME280;39388;50.936;6.848;2022-08-21T03:02:39;101081.97;;;17.10;69.96
53506;BME280;39388;50.936;6.848;2022-08-21T03:05:09;101043.69;;;16.79;69.97
53506;BME280;39388;50.936;6.848;2022-08-21T03:07:42;101091.56;;;17.08;70.16
53506;BME280;39388;50.936;6.848;2022-08-21T03:10:13;101088.09;;;17.08;69.98
53506;BME280;39388;50.936;6.848;2022-08-21T03:12:44;101081.28;;;17.02;69.85
53506;BME280;39388;50.936;6.848;2022-08-21T03:15:16;101077.06;;;16.98;69.90
53506;BME280;39388;50.936;6.848;2022-08-21T03:17:48;101075.44;;;16.94;70.15
53506;BME280;39388;50.936;6.848;2022-08-21T03:20:21;101088.25;;;17.02;70.16
53506;BME280;39388;50.936;6.848;2022-08-21T03:22:54;101080.56;;;16.97;70.16
53506;BME280;39388;50.936;6.848;2022-08-21T03:25:26;101073.66;;;16.96;70.07
53506;BME280;39388;50.936;6.848;2022-08-21T03:27:57;101078.06;;;16.92;70.08
53506;BME280;39388;50.936;6.848;2022-08-21T03:30:28;101084.97;;;16.93;70.12
53506;BME280;39388;50.936;6.848;2022-08-21T03:32:59;101085.97;;;16.89;69.92
53506;BME280;39388;50.936;6.848;2022-08-21T03:35:30;101077.47;;;16.82;70.06
53506;BME280;39388;50.936;6.848;2022-08-21T03:38:00;101085.28;;;16.82;70.17
53506;BME280;39388;50.936;6.848;2022-08-21T03:40:30;101076.72;;;16.77;70.27
53506;BME280;39388;50.936;6.848;2022-08-21T03:43:01;101084.59;;;16.74;70.15
53506;BME280;39388;50.936;6.848;2022-08-21T03:45:32;101087.19;;;16.74;70.40
53506;BME280;39388;50.936;6.848;2022-08-21T03:48:04;101087.25;;;16.73;70.14
53506;BME280;39388;50.936;6.848;2022-08-21T03:50:39;101085.53;;;16.72;70.33
53506;BME280;39388;50.936;6.848;2022-08-21T03:53:11;101083.88;;;16.67;70.12
53506;BME280;39388;50.936;6.848;2022-08-21T03:55:42;101076.25;;;16.60;70.27
53506;BME280;39388;50.936;6.848;2022-08-21T03:58:16;101083.94;;;16.66;70.38
53506;BME280;39388;50.936;6.848;2022-08-21T04:00:49;101072.81;;;16.59;70.31
53506;BME280;39388;50.936;6.848;2022-08-21T04:03:20;101077.13;;;16.60;70.31
53506;BME280;39388;50.936;6.848;2022-08-21T04:05:50;101071.16;;;16.55;70.40
53506;BME280;39388;50.936;6.848;2022-08-21T04:08:21;101084.91;;;16.62;70.24
53506;BME280;39388;50.936;6.848;2022-08-21T04:10:53;101091.88;;;16.61;70.49
53506;BME280;39388;50.936;6.848;2022-08-21T04:13:25;101089.31;;;16.58;70.50
53506;BME280;39388;50.936;6.848;2022-08-21T04:15:58;101086.00;;;16.51;70.57
53506;BME280;39388;50.936;6.848;2022-08-21T04:18:28;101094.66;;;16.52;70.50
53506;BME280;39388;50.936;6.848;2022-08-21T04:20:59;101083.59;;;16.44;70.65
53506;BME280;39388;50.936;6.848;2022-08-21T04:23:30;101096.56;;;16.45;70.63
53506;BME280;39388;50.936;6.848;2022-08-21T04:26:00;101087.19;;;16.38;70.93
53506;BME280;39388;50.936;6.848;2022-08-21T04:28:30;101109.56;;;16.45;70.79
53506;BME280;39388;50.936;6.848;2022-08-21T04:31:01;101113.94;;;16.45;70.69
53506;BME280;39388;50.936;6.848;2022-08-21T04:33:31;101117.38;;;16.47;70.64
53506;BME280;39388;50.936;6.848;2022-08-21T04:36:02;101119.03;;;16.49;70.46
53506;BME280;39388;50.936;6.848;2022-08-21T04:38:33;101107.13;;;16.39;70.67
53506;BME280;39388;50.936;6.848;2022-08-21T04:41:04;101113.22;;;16.38;70.75
53506;BME280;39388;50.936;6.848;2022-08-21T04:43:35;101120.16;;;16.37;70.61
53506;BME280;39388;50.936;6.848;2022-08-21T04:46:06;101114.13;;;16.35;70.79
53506;BME280;39388;50.936;6.848;2022-08-21T04:48:36;101102.22;;;16.27;70.85
53506;BME280;39388;50.936;6.848;2022-08-21T04:51:13;101123.66;;;16.36;70.78
53506;BME280;39388;50.936;6.848;2022-08-21T04:56:29;101128.91;;;16.35;70.70
53506;BME280;39388;50.936;6.848;2022-08-21T04:59:04;101126.28;;;16.35;70.79
53506;BME280;39388;50.936;6.848;2022-08-21T05:01:37;101122.03;;;16.31;70.68
53506;BME280;39388;50.936;6.848;2022-08-21T05:04:12;101118.59;;;16.30;71.02
53506;BME280;39388;50.936;6.848;2022-08-21T05:06:45;101119.44;;;16.31;70.95
53506;BME280;39388;50.936;6.848;2022-08-21T05:09:20;101122.84;;;16.34;70.94
53506;BME280;39388;50.936;6.848;2022-08-21T05:11:50;101118.53;;;16.33;70.87
53506;BME280;39388;50.936;6.848;2022-08-21T05:14:23;101116.78;;;16.34;70.99
53506;BME280;39388;50.936;6.848;2022-08-21T05:16:53;101123.63;;;16.38;71.01
53506;BME280;39388;50.936;6.848;2022-08-21T05:19:24;101133.94;;;16.43;70.98
53506;BME280;39388;50.936;6.848;2022-08-21T05:21:54;101119.25;;;16.40;70.91
53506;BME280;39388;50.936;6.848;2022-08-21T05:24:25;101128.69;;;16.44;70.83
53506;BME280;39388;50.936;6.848;2022-08-21T05:26:57;101126.84;;;16.49;70.75
53506;BME280;39388;50.936;6.848;2022-08-21T05:29:27;101128.56;;;16.50;70.96
53506;BME280;39388;50.936;6.848;2022-08-21T05:32:08;101128.50;;;16.52;70.97
53506;BME280;39388;50.936;6.848;2022-08-21T05:34:39;101115.53;;;16.50;70.72
53506;BME280;39388;50.936;6.848;2022-08-21T05:37:12;101080.50;;;16.26;70.74
53506;BME280;39388;50.936;6.848;2022-08-21T05:39:43;101128.41;;;16.57;70.74
53506;BME280;39388;50.936;6.848;2022-08-21T05:42:13;101096.59;;;16.44;70.50
53506;BME280;39388;50.936;6.848;2022-08-21T05:44:50;101064.06;;;16.26;70.48
53506;BME280;39388;50.936;6.848;2022-08-21T05:47:26;101088.78;;;16.44;70.39
53506;BME280;39388;50.936;6.848;2022-08-21T05:50:25;101136.66;;;16.74;70.45
53506;BME280;39388;50.936;6.848;2022-08-21T05:52:55;101137.50;;;16.76;70.28
53506;BME280;39388;50.936;6.848;2022-08-21T05:55:26;101133.09;;;16.78;70.17
53506;BME280;39388;50.936;6.848;2022-08-21T05:57:56;101105.59;;;16.66;70.26
53506;BME280;39388;50.936;6.848;2022-08-21T06:00:27;101141.50;;;16.90;69.99
53506;BME280;39388;50.936;6.848;2022-08-21T06:03:00;101147.50;;;16.93;69.91
53506;BME280;39388;50.936;6.848;2022-08-21T06:05:37;101143.03;;;16.98;69.99
53506;BME280;39388;50.936;6.848;2022-08-21T06:08:36;101112.03;;;16.89;69.93
53506;BME280;39388;50.936;6.848;2022-08-21T06:18:32;101122.03;;;18.88;65.74
53506;BME280;39388;50.936;6.848;2022-08-21T06:21:03;101108.69;;;19.95;62.43
53506;BME280;39388;50.936;6.848;2022-08-21T06:23:34;101067.16;;;20.54;60.33
53506;BME280;39388;50.936;6.848;2022-08-21T06:33:09;101083.56;;;21.01;59.17
53506;BME280;39388;50.936;6.848;2022-08-21T06:35:40;101083.69;;;20.77;59.69
53506;BME280;39388;50.936;6.848;2022-08-21T06:38:10;101094.63;;;20.87;59.55
53506;BME280;39388;50.936;6.848;2022-08-21T06:40:41;101086.88;;;20.63;60.25
53506;BME280;39388;50.936;6.848;2022-08-21T06:43:14;101047.53;;;19.98;60.56
53506;BME280;39388;50.936;6.848;2022-08-21T06:45:45;101055.38;;;19.76;61.11
53506;BME280;39388;50.936;6.848;2022-08-21T06:48:15;101120.47;;;20.07;61.72
53506;BME280;39388;50.936;6.848;2022-08-21T06:50:47;101047.44;;;19.77;61.11
53506;BME280;39388;50.936;6.848;2022-08-21T06:53:19;101054.66;;;20.16;59.84
53506;BME280;39388;50.936;6.848;2022-08-21T06:55:50;101090.31;;;20.43;59.15
53506;BME280;39388;50.936;6.848;2022-08-21T06:58:20;101075.59;;;20.16;59.45
53506;BME280;39388;50.936;6.848;2022-08-21T07:00:51;101036.00;;;19.80;59.98
53506;BME280;39388;50.936;6.848;2022-08-21T07:03:28;101115.00;;;20.13;60.08
53506;BME280;39388;50.936;6.848;2022-08-21T07:06:01;101009.59;;;19.40;60.28
53506;BME280;39388;50.936;6.848;2022-08-21T07:08:32;101083.22;;;19.77;60.38
53506;BME280;39388;50.936;6.848;2022-08-21T07:11:09;101093.56;;;19.80;60.28
53506;BME280;39388;50.936;6.848;2022-08-21T07:13:41;101067.81;;;19.69;60.36
53506;BME280;39388;50.936;6.848;2022-08-21T07:16:11;101087.59;;;19.76;60.00
53506;BME280;39388;50.936;6.848;2022-08-21T07:18:44;101097.88;;;19.81;59.93
53506;BME280;39388;50.936;6.848;2022-08-21T07:21:15;101114.00;;;19.94;59.83
53506;BME280;39388;50.936;6.848;2022-08-21T07:23:49;101083.16;;;19.78;59.94
53506;BME280;39388;50.936;6.848;2022-08-21T07:26:21;101066.19;;;20.12;59.17
53506;BME280;39388;50.936;6.848;2022-08-21T07:28:53;101053.53;;;20.67;57.63
53506;BME280;39388;50.936;6.848;2022-08-21T07:31:25;101103.41;;;21.06;57.22
53506;BME280;39388;50.936;6.848;2022-08-21T07:33:56;101095.03;;;20.98;57.52
53506;BME280;39388;50.936;6.848;2022-08-21T07:36:26;101080.91;;;20.80;57.34
53506;BME280;39388;50.936;6.848;2022-08-21T07:38:57;101059.63;;;21.08;56.54
53506;BME280;39388;50.936;6.848;2022-08-21T07:41:28;101125.38;;;22.42;54.53
53506;BME280;39388;50.936;6.848;2022-08-21T07:43:59;101085.38;;;23.07;52.42
53506;BME280;39388;50.936;6.848;2022-08-21T07:46:29;101093.28;;;23.91;50.58
53506;BME280;39388;50.936;6.848;2022-08-21T07:49:00;101086.78;;;24.44;49.53
53506;BME280;39388;50.936;6.848;2022-08-21T07:51:31;101056.22;;;24.87;48.32
53506;BME280;39388;50.936;6.848;2022-08-21T07:54:03;101081.72;;;25.46;47.28
53506;BME280;39388;50.936;6.848;2022-08-21T07:56:34;101088.34;;;25.95;46.26
53506;BME280;39388;50.936;6.848;2022-08-21T07:59:04;101084.94;;;26.22;45.92
53506;BME280;39388;50.936;6.848;2022-08-21T08:01:34;101065.75;;;26.59;44.70
53506;BME280;39388;50.936;6.848;2022-08-21T08:04:05;101090.06;;;27.04;43.83
53506;BME280;39388;50.936;6.848;2022-08-21T08:06:35;101088.41;;;27.29;42.81
53506;BME280;39388;50.936;6.848;2022-08-21T08:09:06;101045.91;;;26.79;42.07
53506;BME280;39388;50.936;6.848;2022-08-21T08:11:38;101061.13;;;26.75;41.49
53506;BME280;39388;50.936;6.848;2022-08-21T08:14:11;101100.44;;;26.94;41.63
53506;BME280;39388;50.936;6.848;2022-08-21T08:16:42;101073.97;;;26.81;41.80
53506;BME280;39388;50.936;6.848;2022-08-21T08:19:12;101061.59;;;27.21;41.69
53506;BME280;39388;50.936;6.848;2022-08-21T08:21:45;101081.03;;;27.71;40.45
53506;BME280;39388;50.936;6.848;2022-08-21T08:24:18;101099.53;;;27.84;39.64
53506;BME280;39388;50.936;6.848;2022-08-21T08:26:49;101077.09;;;28.01;40.10
53506;BME280;39388;50.936;6.848;2022-08-21T08:29:21;101081.00;;;28.57;39.49
53506;BME280;39388;50.936;6.848;2022-08-21T08:31:52;101085.22;;;29.07;38.57
53506;BME280;39388;50.936;6.848;2022-08-21T08:34:22;101074.25;;;29.34;38.21
53506;BME280;39388;50.936;6.848;2022-08-21T08:36:53;101074.84;;;29.60;36.85
53506;BME280;39388;50.936;6.848;2022-08-21T08:39:24;101060.13;;;29.68;36.89
53506;BME280;39388;50.936;6.848;2022-08-21T08:44:44;101073.91;;;30.17;36.11
53506;BME280;39388;50.936;6.848;2022-08-21T08:47:19;101054.06;;;30.10;36.01
53506;BME280;39388;50.936;6.848;2022-08-21T08:49:58;101092.88;;;30.45;35.21
53506;BME280;39388;50.936;6.848;2022-08-21T08:52:33;101097.31;;;30.23;35.50
53506;BME280;39388;50.936;6.848;2022-08-21T08:55:12;101039.91;;;29.88;35.42
53506;BME280;39388;50.936;6.848;2022-08-21T08:57:45;101092.72;;;30.25;35.50
53506;BME280;39388;50.936;6.848;2022-08-21T09:00:19;101008.34;;;29.95;34.85
53506;BME280;39388;50.936;6.848;2022-08-21T09:02:56;101051.06;;;30.03;34.37
53506;BME280;39388;50.936;6.848;2022-08-21T09:05:40;101036.28;;;30.21;34.61
53506;BME280;39388;50.936;6.848;2022-08-21T09:11:29;101090.41;;;30.32;34.56
53506;BME280;39388;50.936;6.848;2022-08-21T09:16:59;100998.66;;;28.70;36.23
53506;BME280;39388;50.936;6.848;2022-08-21T09:19:59;101033.72;;;28.62;36.39
53506;BME280;39388;50.936;6.848;2022-08-21T09:26:13;101059.94;;;28.07;37.33
53506;BME280;39388;50.936;6.848;2022-08-21T09:28:42;100976.22;;;27.30;37.87
53506;BME280;39388;50.936;6.848;2022-08-21T09:33:47;101002.47;;;27.33;37.70
53506;BME280;39388;50.936;6.848;2022-08-21T09:36:37;101078.53;;;27.57;38.12
53506;BME280;39388;50.936;6.848;2022-08-21T09:39:09;101080.75;;;27.37;38.67
53506;BME280;39388;50.936;6.848;2022-08-21T09:41:40;101070.28;;;27.23;38.56
53506;BME280;39388;50.936;6.848;2022-08-21T09:44:11;101004.69;;;26.89;39.13
53506;BME280;39388;50.936;6.848;2022-08-21T09:46:50;101000.88;;;26.93;39.10
53506;BME280;39388;50.936;6.848;2022-08-21T09:49:32;100965.38;;;26.57;38.92
53506;BME280;39388;50.936;6.848;2022-08-21T09:52:14;101030.81;;;27.07;38.89
53506;BME280;39388;50.936;6.848;2022-08-21T09:54:46;101043.28;;;27.17;38.60
53506;BME280;39388;50.936;6.848;2022-08-21T09:57:25;101054.59;;;27.20;38.51
53506;BME280;39388;50.936;6.848;2022-08-21T10:00:32;101041.94;;;26.99;38.88
53506;BME280;39388;50.936;6.848;2022-08-21T10:06:01;101049.97;;;27.10;38.50
53506;BME280;39388;50.936;6.848;2022-08-21T10:08:37;101024.88;;;27.03;39.04
53506;BME280;39388;50.936;6.848;2022-08-21T10:11:11;101031.66;;;27.07;38.84
53506;BME280;39388;50.936;6.848;2022-08-21T10:19:14;101008.16;;;27.02;38.68
53506;BME280;39388;50.936;6.848;2022-08-21T10:24:50;101024.94;;;27.40;38.69
53506;BME280;39388;50.936;6.848;2022-08-21T10:27:38;100986.41;;;27.23;38.90
53506;BME280;39388;50.936;6.848;2022-08-21T10:30:15;100996.31;;;27.45;37.99
53506;BME280;39388;50.936;6.848;2022-08-21T10:35:44;101023.53;;;27.47;37.53
53506;BME280;39388;50.936;6.848;2022-08-21T10:44:14;101022.19;;;27.79;38.00
53506;BME280;39388;50.936;6.848;2022-08-21T10:46:53;101011.31;;;27.95;37.51
53506;BME280;39388;50.936;6.848;2022-08-21T10:49:29;101011.47;;;28.05;37.38
53506;BME280;39388;50.936;6.848;2022-08-21T10:52:33;100949.75;;;27.67;37.40
53506;BME280;39388;50.936;6.848;2022-08-21T10:55:11;100957.00;;;27.52;36.50
53506;BME280;39388;50.936;6.848;2022-08-21T11:00:32;100947.28;;;27.40;36.88
53506;BME280;39388;50.936;6.848;2022-08-21T11:03:20;100983.81;;;27.85;36.79
53506;BME280;39388;50.936;6.848;2022-08-21T11:05:59;100941.06;;;27.65;36.30
53506;BME280;39388;50.936;6.848;2022-08-21T11:08:43;100960.19;;;27.82;36.19
53506;BME280;39388;50.936;6.848;2022-08-21T11:11:19;100929.00;;;27.61;36.51
53506;BME280;39388;50.936;6.848;2022-08-21T11:13:55;100992.41;;;28.00;36.04
53506;BME280;39388;50.936;6.848;2022-08-21T11:16:37;101001.72;;;28.05;35.80
53506;BME280;39388;50.936;6.848;2022-08-21T11:19:28;100959.72;;;27.88;35.78
53506;BME280;39388;50.936;6.848;2022-08-21T11:22:10;100979.69;;;28.05;35.43
53506;BME280;39388;50.936;6.848;2022-08-21T11:24:58;100974.38;;;28.05;34.96
53506;BME280;39388;50.936;6.848;2022-08-21T11:27:46;100963.84;;;27.92;35.29
53506;BME280;39388;50.936;6.848;2022-08-21T11:30:19;100945.97;;;27.83;35.30
53506;BME280;39388;50.936;6.848;2022-08-21T12:04:52;100972.47;;;28.54;34.85
53506;BME280;39388;50.936;6.848;2022-08-21T12:10:31;100966.22;;;28.66;34.65
53506;BME280;39388;50.936;6.848;2022-08-21T12:13:21;100973.09;;;28.80;34.43
53506;BME280;39388;50.936;6.848;2022-08-21T12:15:52;100960.09;;;28.77;34.43
53506;BME280;39388;50.936;6.848;2022-08-21T12:18:28;100965.13;;;28.80;34.48
53506;BME280;39388;50.936;6.848;2022-08-21T12:21:03;100959.50;;;28.85;34.05
53506;BME280;39388;50.936;6.848;2022-08-21T12:26:25;100959.38;;;28.98;33.99
53506;BME280;39388;50.936;6.848;2022-08-21T12:29:11;100948.88;;;28.96;33.55
53506;BME280;39388;50.936;6.848;2022-08-21T12:34:46;100941.97;;;28.71;33.93
53506;BME280;39388;50.936;6.848;2022-08-21T12:40:04;100951.03;;;28.68;34.04
53506;BME280;39388;50.936;6.848;2022-08-21T12:42:44;100942.47;;;28.65;34.33
53506;BME280;39388;50.936;6.848;2022-08-21T12:45:31;100959.81;;;28.69;33.75
53506;BME280;39388;50.936;6.848;2022-08-21T12:48:14;100953.78;;;28.67;34.22
53506;BME280;39388;50.936;6.848;2022-08-21T12:50:58;100951.03;;;28.80;34.08
53506;BME280;39388;50.936;6.848;2022-08-21T12:56:25;100954.41;;;29.05;34.01
53506;BME280;39388;50.936;6.848;2022-08-21T12:59:10;100939.09;;;28.97;33.70
53506;BME280;39388;50.936;6.848;2022-08-21T13:01:50;100946.47;;;28.93;34.09
53506;BME280;39388;50.936;6.848;2022-08-21T13:04:32;100943.06;;;29.03;33.99
53506;BME280;39388;50.936;6.848;2022-08-21T13:07:07;100955.13;;;29.18;34.06
53506;BME280;39388;50.936;6.848;2022-08-21T13:09:50;100947.91;;;29.09;34.44
53506;BME280;39388;50.936;6.848;2022-08-21T13:12:22;100943.19;;;29.12;34.12
53506;BME280;39388;50.936;6.848;2022-08-21T13:14:56;100937.78;;;29.14;34.61
53506;BME280;39388;50.936;6.848;2022-08-21T13:17:31;100947.41;;;29.26;34.57
53506;BME280;39388;50.936;6.848;2022-08-21T13:20:09;100945.09;;;29.33;34.36
53506;BME280;39388;50.936;6.848;2022-08-21T13:22:42;100940.13;;;29.40;33.76
53506;BME280;39388;50.936;6.848;2022-08-21T13:25:16;100935.41;;;29.43;34.02
53506;BME280;39388;50.936;6.848;2022-08-21T13:28:09;100940.56;;;29.45;33.91
53506;BME280;39388;50.936;6.848;2022-08-21T13:31:00;100938.81;;;29.34;33.45
53506;BME280;39388;50.936;6.848;2022-08-21T13:33:34;100940.72;;;29.43;33.64
53506;BME280;39388;50.936;6.848;2022-08-21T13:36:10;100934.81;;;29.40;33.46
53506;BME280;39388;50.936;6.848;2022-08-21T13:38:42;100928.53;;;29.41;33.51
53506;BME280;39388;50.936;6.848;2022-08-21T13:41:23;100928.78;;;29.49;33.41
53506;BME280;39388;50.936;6.848;2022-08-21T13:44:13;100934.31;;;29.57;33.41
53506;BME280;39388;50.936;6.848;2022-08-21T13:46:44;100933.59;;;29.44;32.94
53506;BME280;39388;50.936;6.848;2022-08-21T13:49:18;100926.94;;;29.38;33.15
53506;BME280;39388;50.936;6.848;2022-08-21T13:51:49;100927.09;;;29.37;32.87
53506;BME280;39388;50.936;6.848;2022-08-21T13:54:42;100928.19;;;29.34;33.42
53506;BME280;39388;50.936;6.848;2022-08-21T13:57:19;100929.88;;;29.24;33.28
53506;BME280;39388;50.936;6.848;2022-08-21T14:02:45;100935.13;;;28.91;33.56
53506;BME280;39388;50.936;6.848;2022-08-21T14:05:26;100923.06;;;28.87;33.44
53506;BME280;39388;50.936;6.848;2022-08-21T14:08:11;100937.53;;;28.94;33.39
53506;BME280;39388;50.936;6.848;2022-08-21T14:10:47;100924.63;;;28.90;33.14
53506;BME280;39388;50.936;6.848;2022-08-21T14:13:37;100925.09;;;28.72;33.71
53506;BME280;39388;50.936;6.848;2022-08-21T14:16:23;100916.50;;;28.46;33.95
53506;BME280;39388;50.936;6.848;2022-08-21T14:21:37;100920.63;;;28.38;33.38
53506;BME280;39388;50.936;6.848;2022-08-21T14:24:12;100924.09;;;28.28;33.48
53506;BME280;39388;50.936;6.848;2022-08-21T14:26:46;100923.16;;;28.16;34.21
53506;BME280;39388;50.936;6.848;2022-08-21T14:29:21;100920.63;;;28.03;33.79
53506;BME280;39388;50.936;6.848;2022-08-21T14:31:56;100920.22;;;27.85;34.04
53506;BME280;39388;50.936;6.848;2022-08-21T14:34:28;100927.50;;;27.70;34.33
53506;BME280;39388;50.936;6.848;2022-08-21T14:36:59;100918.97;;;27.53;34.27
53506;BME280;39388;50.936;6.848;2022-08-21T14:39:29;100912.66;;;27.43;34.74
53506;BME280;39388;50.936;6.848;2022-08-21T14:42:01;100920.63;;;27.30;34.56
53506;BME280;39388;50.936;6.848;2022-08-21T14:44:31;100926.16;;;27.27;34.86
53506;BME280;39388;50.936;6.848;2022-08-21T14:47:02;100922.16;;;27.21;35.03
53506;BME280;39388;50.936;6.848;2022-08-21T14:49:32;100915.19;;;27.20;35.24
53506;BME280;39388;50.936;6.848;2022-08-21T14:52:03;100913.47;;;27.19;35.11
53506;BME280;39388;50.936;6.848;2022-08-21T14:54:33;100922.59;;;27.15;34.96
53506;BME280;39388;50.936;6.848;2022-08-21T14:57:07;100924.09;;;27.06;34.82
53506;BME280;39388;50.936;6.848;2022-08-21T14:59:39;100919.34;;;26.98;34.89
53506;BME280;39388;50.936;6.848;2022-08-21T15:02:12;100922.19;;;26.95;35.18
53506;BME280;39388;50.936;6.848;2022-08-21T15:04:42;100923.28;;;26.93;35.30
53506;BME280;39388;50.936;6.848;2022-08-21T15:07:13;100927.00;;;26.90;35.43
53506;BME280;39388;50.936;6.848;2022-08-21T15:09:43;100923.59;;;26.88;35.92
53506;BME280;39388;50.936;6.848;2022-08-21T15:12:14;100921.91;;;26.87;35.81
53506;BME280;39388;50.936;6.848;2022-08-21T15:14:45;100917.69;;;26.84;35.71
53506;BME280;39388;50.936;6.848;2022-08-21T15:17:15;100925.19;;;26.91;35.76